SWA3176 KMDW-KSRQ
Flight info
| Callsign | SWA3176 |
|---|---|
| Flight time | N/A |
| Altitude | 36000 |
| Route | CMSKY CARYN CYBIL PXV HITMN ACORI BANGZ2 |
| Aircraft | B738/M-SADE2E3GIJ4RWZ/LB1D1 |
Departure
| Time | 2026-05-06 23:34 |
|---|---|
| Airport | Chicago Midway International Airport (KMDW) |
Arrival
| Time | N/A |
|---|---|
| Airport | Sarasota Bradenton International Airport (KSRQ) |
| Time | Latitude | Longitude | Altitude | Speed | Heading |
|---|---|---|---|---|---|
| 2026-05-06 23:26 | 41.78655 | -87.74664 | 628 ft | 0 kts | 108° |
| 2026-05-06 23:27 | 41.78657 | -87.74669 | 628 ft | 3 kts | 109° |
| 2026-05-06 23:27 | 41.78664 | -87.74701 | 633 ft | 4 kts | 107° |
| 2026-05-06 23:27 | 41.78672 | -87.74736 | 633 ft | 4 kts | 112° |
| 2026-05-06 23:28 | 41.78685 | -87.74767 | 635 ft | 4 kts | 128° |
| 2026-05-06 23:28 | 41.78703 | -87.74787 | 630 ft | 3 kts | 174° |
| 2026-05-06 23:28 | 41.78706 | -87.74787 | 630 ft | 1 kts | 178° |
| 2026-05-06 23:32 | 41.78700 | -87.74787 | 636 ft | 3 kts | 178° |
| 2026-05-06 23:32 | 41.78657 | -87.74793 | 628 ft | 10 kts | 174° |
| 2026-05-06 23:32 | 41.78573 | -87.74734 | 628 ft | 18 kts | 134° |
| 2026-05-06 23:32 | 41.78469 | -87.74591 | 631 ft | 25 kts | 134° |
| 2026-05-06 23:33 | 41.78339 | -87.74409 | 633 ft | 28 kts | 134° |
| 2026-05-06 23:33 | 41.78169 | -87.74364 | 633 ft | 25 kts | 179° |
| 2026-05-06 23:33 | 41.78013 | -87.74305 | 631 ft | 22 kts | 180° |
| 2026-05-06 23:33 | 41.77968 | -87.74434 | 630 ft | 24 kts | 308° |
| 2026-05-06 23:34 | 41.78272 | -87.74860 | 629 ft | 101 kts | 313° |
| 2026-05-06 23:34 | 41.78886 | -87.75713 | 817 ft | 141 kts | 311° |
| 2026-05-06 23:34 | 41.79495 | -87.76698 | 1726 ft | 144 kts | 293° |
| 2026-05-06 23:34 | 41.79467 | -87.78153 | 2026 ft | 180 kts | 245° |
| 2026-05-06 23:35 | 41.78454 | -87.79303 | 2242 ft | 211 kts | 201° |
| 2026-05-06 23:35 | 41.76944 | -87.79327 | 2691 ft | 222 kts | 177° |
| 2026-05-06 23:35 | 41.75409 | -87.79479 | 3156 ft | 224 kts | 196° |
| 2026-05-06 23:35 | 41.73877 | -87.79892 | 3830 ft | 225 kts | 194° |
| 2026-05-06 23:36 | 41.72267 | -87.80298 | 4150 ft | 248 kts | 194° |
| 2026-05-06 23:36 | 41.70501 | -87.80735 | 4518 ft | 266 kts | 193° |
| 2026-05-06 23:36 | 41.68671 | -87.81178 | 5223 ft | 268 kts | 193° |
| 2026-05-06 23:36 | 41.66829 | -87.81619 | 6056 ft | 271 kts | 193° |
| 2026-05-06 23:37 | 41.64957 | -87.82067 | 6951 ft | 274 kts | 194° |
| 2026-05-06 23:37 | 41.63079 | -87.82516 | 7929 ft | 274 kts | 194° |
| 2026-05-06 23:37 | 41.61196 | -87.82964 | 8922 ft | 274 kts | 195° |
| 2026-05-06 23:37 | 41.59318 | -87.83411 | 9923 ft | 275 kts | 195° |
| 2026-05-06 23:38 | 41.57406 | -87.83870 | 10542 ft | 288 kts | 196° |
| 2026-05-06 23:38 | 41.55342 | -87.84373 | 10738 ft | 315 kts | 195° |
| 2026-05-06 23:38 | 41.53116 | -87.84910 | 11130 ft | 332 kts | 195° |
| 2026-05-06 23:38 | 41.50841 | -87.85447 | 11865 ft | 337 kts | 196° |
| 2026-05-06 23:39 | 41.48526 | -87.85990 | 12743 ft | 339 kts | 197° |
| 2026-05-06 23:39 | 41.46195 | -87.86541 | 13580 ft | 342 kts | 197° |
| 2026-05-06 23:39 | 41.43831 | -87.87102 | 14313 ft | 346 kts | 197° |
| 2026-05-06 23:39 | 41.41457 | -87.87657 | 15129 ft | 347 kts | 196° |
| 2026-05-06 23:40 | 41.39036 | -87.87991 | 15946 ft | 351 kts | 192° |
| 2026-05-06 23:40 | 41.36587 | -87.88218 | 16723 ft | 353 kts | 192° |
| 2026-05-06 23:40 | 41.34122 | -87.88432 | 17453 ft | 356 kts | 192° |